sensor_id;sensor_type;location;lat;lon;timestamp;temperature;humidity
22948;DHT22;11640;52.520;13.456;2022-09-28T00:00:32;9.40;99.90
22948;DHT22;11640;52.520;13.456;2022-09-28T00:05:34;9.50;99.90
22948;DHT22;11640;52.520;13.456;2022-09-28T00:10:36;9.50;99.90
22948;DHT22;11640;52.520;13.456;2022-09-28T00:15:38;9.50;99.90
22948;DHT22;11640;52.520;13.456;2022-09-28T00:20:39;9.60;99.90
22948;DHT22;11640;52.520;13.456;2022-09-28T00:25:41;9.60;99.90
22948;DHT22;11640;52.520;13.456;2022-09-28T00:30:43;9.60;99.90
22948;DHT22;11640;52.520;13.456;2022-09-28T00:35:45;9.60;99.90
22948;DHT22;11640;52.520;13.456;2022-09-28T00:40:46;9.60;99.90
22948;DHT22;11640;52.520;13.456;2022-09-28T00:45:55;9.70;99.90
22948;DHT22;11640;52.520;13.456;2022-09-28T00:51:02;9.70;99.90
22948;DHT22;11640;52.520;13.456;2022-09-28T00:56:11;9.70;99.90
22948;DHT22;11640;52.520;13.456;2022-09-28T01:01:14;9.60;99.90
22948;DHT22;11640;52.520;13.456;2022-09-28T01:06:20;9.60;99.90
22948;DHT22;11640;52.520;13.456;2022-09-28T01:11:22;9.60;99.90
22948;DHT22;11640;52.520;13.456;2022-09-28T01:16:46;9.60;99.90
22948;DHT22;11640;52.520;13.456;2022-09-28T01:27:28;9.70;99.90
22948;DHT22;11640;52.520;13.456;2022-09-28T01:38:02;9.80;99.90
22948;DHT22;11640;52.520;13.456;2022-09-28T01:43:12;9.80;99.90
22948;DHT22;11640;52.520;13.456;2022-09-28T01:48:23;9.90;99.90
22948;DHT22;11640;52.520;13.456;2022-09-28T01:53:39;9.90;99.90
22948;DHT22;11640;52.520;13.456;2022-09-28T02:03:53;9.80;99.90
22948;DHT22;11640;52.520;13.456;2022-09-28T02:09:02;9.80;99.90
22948;DHT22;11640;52.520;13.456;2022-09-28T02:14:14;9.80;99.90
22948;DHT22;11640;52.520;13.456;2022-09-28T02:19:22;9.80;99.90
22948;DHT22;11640;52.520;13.456;2022-09-28T02:24:40;9.80;99.90
22948;DHT22;11640;52.520;13.456;2022-09-28T02:29:50;9.80;99.90
22948;DHT22;11640;52.520;13.456;2022-09-28T02:34:54;9.70;99.90
22948;DHT22;11640;52.520;13.456;2022-09-28T02:39:56;9.70;99.90
22948;DHT22;11640;52.520;13.456;2022-09-28T02:50:14;9.60;99.90
22948;DHT22;11640;52.520;13.456;2022-09-28T03:00:40;9.50;99.90
22948;DHT22;11640;52.520;13.456;2022-09-28T03:06:14;9.50;99.90
22948;DHT22;11640;52.520;13.456;2022-09-28T03:11:29;9.50;99.90
22948;DHT22;11640;52.520;13.456;2022-09-28T03:16:32;9.40;99.90
22948;DHT22;11640;52.520;13.456;2022-09-28T03:21:35;9.40;99.90
22948;DHT22;11640;52.520;13.456;2022-09-28T03:26:37;9.30;99.90
22948;DHT22;11640;52.520;13.456;2022-09-28T03:31:40;9.30;99.90
22948;DHT22;11640;52.520;13.456;2022-09-28T03:36:42;9.30;99.90
22948;DHT22;11640;52.520;13.456;2022-09-28T03:41:43;9.20;99.90
22948;DHT22;11640;52.520;13.456;2022-09-28T03:46:45;9.10;99.90
22948;DHT22;11640;52.520;13.456;2022-09-28T03:51:47;9.00;99.90
22948;DHT22;11640;52.520;13.456;2022-09-28T03:56:49;9.00;99.90
22948;DHT22;11640;52.520;13.456;2022-09-28T04:01:52;8.90;99.90
22948;DHT22;11640;52.520;13.456;2022-09-28T04:06:54;8.80;99.90
22948;DHT22;11640;52.520;13.456;2022-09-28T04:11:56;8.70;99.90
22948;DHT22;11640;52.520;13.456;2022-09-28T04:17:04;8.70;99.90
22948;DHT22;11640;52.520;13.456;2022-09-28T04:22:07;8.60;99.90
22948;DHT22;11640;52.520;13.456;2022-09-28T04:27:10;8.60;99.90
22948;DHT22;11640;52.520;13.456;2022-09-28T04:32:30;8.50;99.90
22948;DHT22;11640;52.520;13.456;2022-09-28T04:37:32;8.50;99.90
22948;DHT22;11640;52.520;13.456;2022-09-28T04:42:35;8.50;99.90
22948;DHT22;11640;52.520;13.456;2022-09-28T04:47:37;8.50;99.90
22948;DHT22;11640;52.520;13.456;2022-09-28T04:53:01;8.60;99.90
22948;DHT22;11640;52.520;13.456;2022-09-28T04:58:03;8.70;99.90
22948;DHT22;11640;52.520;13.456;2022-09-28T05:03:06;8.80;99.90
22948;DHT22;11640;52.520;13.456;2022-09-28T05:08:34;8.90;99.90
22948;DHT22;11640;52.520;13.456;2022-09-28T05:13:41;8.90;99.90
22948;DHT22;11640;52.520;13.456;2022-09-28T05:18:43;9.00;99.90
22948;DHT22;11640;52.520;13.456;2022-09-28T05:23:46;9.00;99.90
22948;DHT22;11640;52.520;13.456;2022-09-28T05:28:48;9.10;99.90
22948;DHT22;11640;52.520;13.456;2022-09-28T05:34:09;9.10;99.90
22948;DHT22;11640;52.520;13.456;2022-09-28T05:39:11;9.10;99.90
22948;DHT22;11640;52.520;13.456;2022-09-28T05:44:13;9.10;99.90
22948;DHT22;11640;52.520;13.456;2022-09-28T05:49:16;9.20;99.90
22948;DHT22;11640;52.520;13.456;2022-09-28T05:54:18;9.20;99.90
22948;DHT22;11640;52.520;13.456;2022-09-28T05:59:20;9.30;99.90
22948;DHT22;11640;52.520;13.456;2022-09-28T06:04:23;9.30;99.90
22948;DHT22;11640;52.520;13.456;2022-09-28T06:09:25;9.30;99.90
22948;DHT22;11640;52.520;13.456;2022-09-28T06:14:48;9.40;99.90
22948;DHT22;11640;52.520;13.456;2022-09-28T06:19:50;9.50;99.90
22948;DHT22;11640;52.520;13.456;2022-09-28T06:25:01;9.60;99.90
22948;DHT22;11640;52.520;13.456;2022-09-28T06:30:03;9.70;99.90
22948;DHT22;11640;52.520;13.456;2022-09-28T06:35:05;9.70;99.90
22948;DHT22;11640;52.520;13.456;2022-09-28T06:40:09;9.60;99.90
22948;DHT22;11640;52.520;13.456;2022-09-28T06:45:11;9.50;99.90
22948;DHT22;11640;52.520;13.456;2022-09-28T06:50:38;9.50;99.90
22948;DHT22;11640;52.520;13.456;2022-09-28T06:56:00;9.50;99.90
22948;DHT22;11640;52.520;13.456;2022-09-28T07:01:03;9.50;99.90
22948;DHT22;11640;52.520;13.456;2022-09-28T07:06:31;9.50;99.90
22948;DHT22;11640;52.520;13.456;2022-09-28T07:11:51;9.70;99.90
22948;DHT22;11640;52.520;13.456;2022-09-28T07:17:16;9.70;99.90
22948;DHT22;11640;52.520;13.456;2022-09-28T07:22:19;9.90;99.90
22948;DHT22;11640;52.520;13.456;2022-09-28T07:27:38;9.90;99.90
22948;DHT22;11640;52.520;13.456;2022-09-28T07:32:50;10.00;99.90
22948;DHT22;11640;52.520;13.456;2022-09-28T07:38:31;10.10;99.90
22948;DHT22;11640;52.520;13.456;2022-09-28T07:43:34;10.20;99.90
22948;DHT22;11640;52.520;13.456;2022-09-28T07:48:41;10.30;99.90
22948;DHT22;11640;52.520;13.456;2022-09-28T07:53:58;10.40;99.90
22948;DHT22;11640;52.520;13.456;2022-09-28T07:59:12;10.60;99.90
22948;DHT22;11640;52.520;13.456;2022-09-28T08:04:36;10.80;99.90
22948;DHT22;11640;52.520;13.456;2022-09-28T08:09:38;11.10;99.90
22948;DHT22;11640;52.520;13.456;2022-09-28T08:14:58;11.40;99.90
22948;DHT22;11640;52.520;13.456;2022-09-28T08:20:09;11.50;99.90
22948;DHT22;11640;52.520;13.456;2022-09-28T08:25:30;11.50;99.90
22948;DHT22;11640;52.520;13.456;2022-09-28T08:30:35;11.60;99.90
22948;DHT22;11640;52.520;13.456;2022-09-28T08:35:59;11.60;99.90
22948;DHT22;11640;52.520;13.456;2022-09-28T08:41:34;11.80;99.90
22948;DHT22;11640;52.520;13.456;2022-09-28T08:47:04;12.00;99.90
22948;DHT22;11640;52.520;13.456;2022-09-28T08:52:45;12.10;99.90
22948;DHT22;11640;52.520;13.456;2022-09-28T08:58:15;12.30;99.90
22948;DHT22;11640;52.520;13.456;2022-09-28T09:03:21;12.40;99.90
22948;DHT22;11640;52.520;13.456;2022-09-28T09:14:21;12.50;99.90
22948;DHT22;11640;52.520;13.456;2022-09-28T09:19:39;12.60;99.90
22948;DHT22;11640;52.520;13.456;2022-09-28T09:25:21;12.70;99.90
22948;DHT22;11640;52.520;13.456;2022-09-28T09:30:36;12.70;99.90
22948;DHT22;11640;52.520;13.456;2022-09-28T09:47:08;13.70;99.90
22948;DHT22;11640;52.520;13.456;2022-09-28T09:52:54;13.80;99.90
22948;DHT22;11640;52.520;13.456;2022-09-28T09:58:26;13.70;99.90
22948;DHT22;11640;52.520;13.456;2022-09-28T10:03:47;14.20;99.90
22948;DHT22;11640;52.520;13.456;2022-09-28T10:09:14;14.60;99.90
22948;DHT22;11640;52.520;13.456;2022-09-28T10:14:20;14.80;99.90
22948;DHT22;11640;52.520;13.456;2022-09-28T10:19:35;14.50;99.90
22948;DHT22;11640;52.520;13.456;2022-09-28T10:25:07;14.40;99.90
22948;DHT22;11640;52.520;13.456;2022-09-28T10:30:17;14.20;99.90
22948;DHT22;11640;52.520;13.456;2022-09-28T10:35:25;13.80;99.90
22948;DHT22;11640;52.520;13.456;2022-09-28T10:40:45;13.60;99.90
22948;DHT22;11640;52.520;13.456;2022-09-28T10:51:06;13.70;99.90
22948;DHT22;11640;52.520;13.456;2022-09-28T10:56:20;13.60;99.90
22948;DHT22;11640;52.520;13.456;2022-09-28T11:01:32;14.00;99.90
22948;DHT22;11640;52.520;13.456;2022-09-28T11:06:37;14.20;99.90
22948;DHT22;11640;52.520;13.456;2022-09-28T11:11:41;14.40;99.90
22948;DHT22;11640;52.520;13.456;2022-09-28T11:16:44;14.40;99.90
22948;DHT22;11640;52.520;13.456;2022-09-28T11:21:47;14.10;99.90
22948;DHT22;11640;52.520;13.456;2022-09-28T11:26:53;14.10;99.90
22948;DHT22;11640;52.520;13.456;2022-09-28T11:32:03;13.80;99.90
22948;DHT22;11640;52.520;13.456;2022-09-28T11:48:10;13.00;99.90
22948;DHT22;11640;52.520;13.456;2022-09-28T11:53:32;13.10;99.90
22948;DHT22;11640;52.520;13.456;2022-09-28T11:58:48;13.40;99.90
22948;DHT22;11640;52.520;13.456;2022-09-28T12:03:59;13.00;99.90
22948;DHT22;11640;52.520;13.456;2022-09-28T12:09:06;13.10;99.90
22948;DHT22;11640;52.520;13.456;2022-09-28T12:14:33;13.10;99.90
22948;DHT22;11640;52.520;13.456;2022-09-28T12:19:47;13.00;99.90
22948;DHT22;11640;52.520;13.456;2022-09-28T12:24:51;12.90;99.90
22948;DHT22;11640;52.520;13.456;2022-09-28T12:30:15;13.10;99.90
22948;DHT22;11640;52.520;13.456;2022-09-28T12:35:39;13.30;99.90
22948;DHT22;11640;52.520;13.456;2022-09-28T12:46:36;13.20;99.90
22948;DHT22;11640;52.520;13.456;2022-09-28T12:51:52;13.40;99.90
22948;DHT22;11640;52.520;13.456;2022-09-28T13:12:32;13.60;99.90
22948;DHT22;11640;52.520;13.456;2022-09-28T13:17:52;13.60;99.90
22948;DHT22;11640;52.520;13.456;2022-09-28T13:23:49;13.50;99.90
22948;DHT22;11640;52.520;13.456;2022-09-28T13:29:13;13.50;99.90
22948;DHT22;11640;52.520;13.456;2022-09-28T13:34:20;13.70;99.90
22948;DHT22;11640;52.520;13.456;2022-09-28T13:39:52;13.90;99.90
22948;DHT22;11640;52.520;13.456;2022-09-28T13:56:36;14.10;99.90
22948;DHT22;11640;52.520;13.456;2022-09-28T14:01:50;14.10;99.90
22948;DHT22;11640;52.520;13.456;2022-09-28T14:07:09;14.10;99.90
22948;DHT22;11640;52.520;13.456;2022-09-28T14:17:51;13.90;99.90
22948;DHT22;11640;52.520;13.456;2022-09-28T14:22:57;13.80;99.90
22948;DHT22;11640;52.520;13.456;2022-09-28T14:33:29;13.80;99.90
22948;DHT22;11640;52.520;13.456;2022-09-28T14:38:43;13.60;99.90
22948;DHT22;11640;52.520;13.456;2022-09-28T14:44:08;13.60;99.90
22948;DHT22;11640;52.520;13.456;2022-09-28T14:54:22;13.60;99.90
22948;DHT22;11640;52.520;13.456;2022-09-28T14:59:25;13.60;99.90
22948;DHT22;11640;52.520;13.456;2022-09-28T15:04:28;13.60;99.90
22948;DHT22;11640;52.520;13.456;2022-09-28T15:09:33;13.60;99.90
22948;DHT22;11640;52.520;13.456;2022-09-28T15:14:44;13.50;99.90
22948;DHT22;11640;52.520;13.456;2022-09-28T15:25:13;13.60;99.90
22948;DHT22;11640;52.520;13.456;2022-09-28T15:35:22;13.40;99.90
22948;DHT22;11640;52.520;13.456;2022-09-28T15:40:33;13.20;99.90
22948;DHT22;11640;52.520;13.456;2022-09-28T15:45:39;13.10;99.90
22948;DHT22;11640;52.520;13.456;2022-09-28T15:50:41;12.90;99.90
22948;DHT22;11640;52.520;13.456;2022-09-28T15:55:59;12.80;99.90
22948;DHT22;11640;52.520;13.456;2022-09-28T16:01:27;12.60;99.90
22948;DHT22;11640;52.520;13.456;2022-09-28T16:06:36;12.60;99.90
22948;DHT22;11640;52.520;13.456;2022-09-28T16:11:39;12.60;99.90
22948;DHT22;11640;52.520;13.456;2022-09-28T16:16:47;12.40;99.90
22948;DHT22;11640;52.520;13.456;2022-09-28T16:21:51;12.20;99.90
22948;DHT22;11640;52.520;13.456;2022-09-28T16:26:58;12.10;99.90
22948;DHT22;11640;52.520;13.456;2022-09-28T16:37:30;11.70;99.90
22948;DHT22;11640;52.520;13.456;2022-09-28T16:42:32;11.60;99.90
22948;DHT22;11640;52.520;13.456;2022-09-28T16:47:34;11.50;99.90
22948;DHT22;11640;52.520;13.456;2022-09-28T16:52:36;11.30;99.90
22948;DHT22;11640;52.520;13.456;2022-09-28T16:58:00;11.20;99.90
22948;DHT22;11640;52.520;13.456;2022-09-28T17:03:15;11.10;99.90
22948;DHT22;11640;52.520;13.456;2022-09-28T17:08:20;11.00;99.90
22948;DHT22;11640;52.520;13.456;2022-09-28T17:13:25;10.90;99.90
22948;DHT22;11640;52.520;13.456;2022-09-28T17:18:36;10.70;99.90
22948;DHT22;11640;52.520;13.456;2022-09-28T17:23:39;10.70;99.90
22948;DHT22;11640;52.520;13.456;2022-09-28T17:28:41;10.70;99.90
22948;DHT22;11640;52.520;13.456;2022-09-28T17:33:43;10.70;99.90
22948;DHT22;11640;52.520;13.456;2022-09-28T17:38:46;10.70;99.90
22948;DHT22;11640;52.520;13.456;2022-09-28T17:43:48;10.60;99.90
22948;DHT22;11640;52.520;13.456;2022-09-28T17:48:50;10.60;99.90
22948;DHT22;11640;52.520;13.456;2022-09-28T17:53:52;10.40;99.90
22948;DHT22;11640;52.520;13.456;2022-09-28T17:59:02;10.40;99.90
22948;DHT22;11640;52.520;13.456;2022-09-28T18:04:06;10.40;99.90
22948;DHT22;11640;52.520;13.456;2022-09-28T18:09:13;10.40;99.90
22948;DHT22;11640;52.520;13.456;2022-09-28T18:14:15;10.30;99.90
22948;DHT22;11640;52.520;13.456;2022-09-28T18:19:17;10.20;99.90
22948;DHT22;11640;52.520;13.456;2022-09-28T18:24:18;10.20;99.90
22948;DHT22;11640;52.520;13.456;2022-09-28T18:29:20;10.20;99.90
22948;DHT22;11640;52.520;13.456;2022-09-28T18:34:22;10.10;99.90
22948;DHT22;11640;52.520;13.456;2022-09-28T18:39:24;10.10;99.90
22948;DHT22;11640;52.520;13.456;2022-09-28T18:44:27;10.10;99.90
22948;DHT22;11640;52.520;13.456;2022-09-28T18:49:29;10.10;99.90
22948;DHT22;11640;52.520;13.456;2022-09-28T18:54:31;10.00;99.90
22948;DHT22;11640;52.520;13.456;2022-09-28T18:59:33;10.00;99.90
22948;DHT22;11640;52.520;13.456;2022-09-28T19:04:35;9.90;99.90
22948;DHT22;11640;52.520;13.456;2022-09-28T19:09:37;10.00;99.90
22948;DHT22;11640;52.520;13.456;2022-09-28T19:14:44;10.00;99.90
22948;DHT22;11640;52.520;13.456;2022-09-28T19:19:46;9.90;99.90
22948;DHT22;11640;52.520;13.456;2022-09-28T19:24:48;9.90;99.90
22948;DHT22;11640;52.520;13.456;2022-09-28T19:29:50;9.90;99.90
22948;DHT22;11640;52.520;13.456;2022-09-28T19:34:51;9.80;99.90
22948;DHT22;11640;52.520;13.456;2022-09-28T19:39:53;9.80;99.90
22948;DHT22;11640;52.520;13.456;2022-09-28T19:44:55;9.70;99.90
22948;DHT22;11640;52.520;13.456;2022-09-28T19:49:57;9.60;99.90
22948;DHT22;11640;52.520;13.456;2022-09-28T19:54:59;9.50;99.90
22948;DHT22;11640;52.520;13.456;2022-09-28T20:00:01;9.50;99.90
22948;DHT22;11640;52.520;13.456;2022-09-28T20:05:07;9.50;99.90
22948;DHT22;11640;52.520;13.456;2022-09-28T20:10:09;9.40;99.90
22948;DHT22;11640;52.520;13.456;2022-09-28T20:15:12;9.40;99.90
22948;DHT22;11640;52.520;13.456;2022-09-28T20:20:14;9.30;99.90
22948;DHT22;11640;52.520;13.456;2022-09-28T20:25:17;9.30;99.90
22948;DHT22;11640;52.520;13.456;2022-09-28T20:30:19;9.20;99.90
22948;DHT22;11640;52.520;13.456;2022-09-28T20:35:21;9.20;99.90
22948;DHT22;11640;52.520;13.456;2022-09-28T20:40:34;9.20;99.90
22948;DHT22;11640;52.520;13.456;2022-09-28T20:45:37;9.20;99.90
22948;DHT22;11640;52.520;13.456;2022-09-28T20:50:38;9.20;99.90
22948;DHT22;11640;52.520;13.456;2022-09-28T20:55:41;9.30;99.90
22948;DHT22;11640;52.520;13.456;2022-09-28T21:00:43;9.30;99.90
22948;DHT22;11640;52.520;13.456;2022-09-28T21:05:45;9.40;99.90
22948;DHT22;11640;52.520;13.456;2022-09-28T21:10:46;9.40;99.90
22948;DHT22;11640;52.520;13.456;2022-09-28T21:15:51;9.40;99.90
22948;DHT22;11640;52.520;13.456;2022-09-28T21:20:53;9.50;99.90
22948;DHT22;11640;52.520;13.456;2022-09-28T21:31:05;9.50;99.90
22948;DHT22;11640;52.520;13.456;2022-09-28T21:36:08;9.50;99.90
22948;DHT22;11640;52.520;13.456;2022-09-28T21:41:10;9.50;99.90
22948;DHT22;11640;52.520;13.456;2022-09-28T21:46:12;9.50;99.90
22948;DHT22;11640;52.520;13.456;2022-09-28T21:51:14;9.60;99.90
22948;DHT22;11640;52.520;13.456;2022-09-28T21:56:16;9.60;99.90
22948;DHT22;11640;52.520;13.456;2022-09-28T22:01:20;9.60;99.90
22948;DHT22;11640;52.520;13.456;2022-09-28T22:06:25;9.60;99.90
22948;DHT22;11640;52.520;13.456;2022-09-28T22:11:30;9.60;99.90
22948;DHT22;11640;52.520;13.456;2022-09-28T22:16:31;9.70;99.90
22948;DHT22;11640;52.520;13.456;2022-09-28T22:21:34;9.80;99.90
22948;DHT22;11640;52.520;13.456;2022-09-28T22:26:36;9.80;99.90
22948;DHT22;11640;52.520;13.456;2022-09-28T22:31:39;9.80;99.90
22948;DHT22;11640;52.520;13.456;2022-09-28T22:36:41;9.80;99.90
22948;DHT22;11640;52.520;13.456;2022-09-28T22:41:43;9.80;99.90
22948;DHT22;11640;52.520;13.456;2022-09-28T22:46:45;9.80;99.90
22948;DHT22;11640;52.520;13.456;2022-09-28T22:51:47;9.70;99.90
22948;DHT22;11640;52.520;13.456;2022-09-28T22:56:49;9.60;99.90
22948;DHT22;11640;52.520;13.456;2022-09-28T23:01:51;9.60;99.90
22948;DHT22;11640;52.520;13.456;2022-09-28T23:06:53;9.50;99.90
22948;DHT22;11640;52.520;13.456;2022-09-28T23:11:55;9.50;99.90
22948;DHT22;11640;52.520;13.456;2022-09-28T23:16:56;9.50;99.90
22948;DHT22;11640;52.520;13.456;2022-09-28T23:21:58;9.40;99.90
22948;DHT22;11640;52.520;13.456;2022-09-28T23:27:00;9.40;99.90
22948;DHT22;11640;52.520;13.456;2022-09-28T23:32:01;9.40;99.90
22948;DHT22;11640;52.520;13.456;2022-09-28T23:37:03;9.40;99.90
22948;DHT22;11640;52.520;13.456;2022-09-28T23:42:05;9.30;99.90
22948;DHT22;11640;52.520;13.456;2022-09-28T23:47:07;9.30;99.90
22948;DHT22;11640;52.520;13.456;2022-09-28T23:52:09;9.30;99.90
22948;DHT22;11640;52.520;13.456;2022-09-28T23:57:11;9.30;99.90
